Time;durP1;ratioP1;P1;durP2;ratioP2;P2;SDS_P1;SDS_P2;PMS_P1;PMS_P2;Temp;Humidity;BMP_temperature;BMP_pressure;BME280_temperature;BME280_humidity;BME280_pressure;Samples;Min_cycle;Max_cycle;Signal;HPM_P1;HPM_P2
2022/10/31 00:01:44;;;;;;;;;;;;;;;15.58;96.19;101271.34;7388324;19;19914;-60
2022/10/31 00:04:12;;;;;;;;;;;;;;;15.55;96.02;101269.84;7387241;19;20380;-61
2022/10/31 00:06:39;;;;;;;;;;;;;;;15.56;95.98;101278.63;7388109;19;19918;-62
2022/10/31 00:09:06;;;;;;;;;;;;;;;15.55;95.92;101274.31;7389770;19;19919;-62
2022/10/31 00:11:33;;;;;;;;;;;;;;;15.55;96.23;101277.81;7387854;19;19919;-60
2022/10/31 00:13:59;;;;;;;;;;;;;;;15.54;96.24;101280.66;7387536;19;19918;-62
2022/10/31 00:16:27;;;;;;;;;;;;;;;15.57;96.79;101280.28;7387016;19;19926;-60
2022/10/31 00:18:55;;;;;;;;;;;;;;;15.57;97.09;101275.00;7386719;19;19922;-61
2022/10/31 00:21:23;;;;;;;;;;;;;;;15.57;97.20;101282.94;7389185;19;19929;-62
2022/10/31 00:23:50;;;;;;;;;;;;;;;15.58;97.24;101279.28;7385673;19;19926;-61
2022/10/31 00:26:18;;;;;;;;;;;;;;;15.58;97.49;101277.47;7385391;19;20003;-61
2022/10/31 00:28:45;;;;;;;;;;;;;;;15.60;97.29;101285.22;7387032;19;19922;-60
2022/10/31 00:31:12;;;;;;;;;;;;;;;15.60;97.17;101286.06;7386944;19;19919;-62
2022/10/31 00:33:40;;;;;;;;;;;;;;;15.60;97.11;101283.41;7386164;19;20451;-62
2022/10/31 00:36:07;;;;;;;;;;;;;;;15.61;97.33;101284.25;7388939;19;19922;-62
2022/10/31 00:38:34;;;;;;;;;;;;;;;15.61;97.55;101284.25;7387211;19;19927;-62
2022/10/31 00:41:01;;;;;;;;;;;;;;;15.60;97.22;101286.06;7388670;19;19914;-61
2022/10/31 00:43:28;;;;;;;;;;;;;;;15.59;96.97;101287.09;7381655;19;19910;-62
2022/10/31 00:45:55;;;;;;;;;;;;;;;15.59;97.29;101287.09;7387733;19;19921;-61
2022/10/31 00:48:22;;;;;;;;;;;;;;;15.61;97.65;101278.94;7387149;19;20315;-61
2022/10/31 00:50:49;;;;;;;;;;;;;;;15.61;97.73;101271.81;7386719;19;19923;-61
2022/10/31 00:53:16;;;;;;;;;;;;;;;15.61;97.78;101277.13;7385651;19;20626;-61
2022/10/31 00:55:43;;;;;;;;;;;;;;;15.60;97.81;101272.81;7387030;19;20190;-61
2022/10/31 00:58:10;;;;;;;;;;;;;;;15.60;97.67;101279.94;7382057;19;19941;-61
2022/10/31 01:00:39;;;;;;;;;;;;;;;15.61;97.64;101279.75;7387482;19;19941;-61
2022/10/31 01:03:06;;;;;;;;;;;;;;;15.60;97.33;101275.47;7383769;19;19925;-61
2022/10/31 01:05:33;;;;;;;;;;;;;;;15.62;97.49;101275.28;7384995;19;19930;-61
2022/10/31 01:08:00;;;;;;;;;;;;;;;15.64;97.64;101270.66;7387151;19;19927;-61
2022/10/31 01:10:28;;;;;;;;;;;;;;;15.62;97.70;101277.94;7386961;19;19979;-61
2022/10/31 01:12:55;;;;;;;;;;;;;;;15.59;97.81;101271.19;7382488;19;20466;-61
2022/10/31 01:15:22;;;;;;;;;;;;;;;15.59;97.47;101267.69;7386024;19;19915;-61
2022/10/31 01:17:49;;;;;;;;;;;;;;;15.56;97.48;101263.53;7387133;19;19915;-61
2022/10/31 01:20:18;;;;;;;;;;;;;;;15.56;97.89;101271.50;7386133;19;19998;-61
2022/10/31 01:22:46;;;;;;;;;;;;;;;15.56;98.14;101271.50;7385443;19;19975;-61
2022/10/31 01:25:13;;;;;;;;;;;;;;;15.55;97.94;101272.50;7386593;19;19919;-61
2022/10/31 01:27:40;;;;;;;;;;;;;;;15.52;97.92;101269.38;7385365;19;20027;-61
2022/10/31 01:30:08;;;;;;;;;;;;;;;15.52;98.22;101264.06;7386201;19;20348;-61
2022/10/31 01:32:34;;;;;;;;;;;;;;;15.51;98.26;101265.91;7386995;19;19907;-61
2022/10/31 01:35:02;;;;;;;;;;;;;;;15.52;98.58;101272.03;7386730;19;19926;-61
2022/10/31 01:37:30;;;;;;;;;;;;;;;15.53;98.70;101265.72;7388113;19;19923;-60
2022/10/31 01:39:57;;;;;;;;;;;;;;;15.54;98.51;101262.09;7394627;19;19926;-61
2022/10/31 01:42:24;;;;;;;;;;;;;;;15.53;98.25;101263.91;7392137;19;19918;-61
2022/10/31 01:44:52;;;;;;;;;;;;;;;15.54;98.30;101264.72;7392884;19;19926;-62
2022/10/31 01:47:21;;;;;;;;;;;;;;;15.54;98.20;101264.72;7394304;19;19918;-62
2022/10/31 01:49:51;;;;;;;;;;;;;;;15.53;98.28;101263.06;7391121;19;19996;-60
2022/10/31 01:52:21;;;;;;;;;;;;;;;15.51;98.69;101265.91;7393502;19;19921;-62
2022/10/31 01:54:51;;;;;;;;;;;;;;;15.53;99.04;101263.06;7393837;19;19918;-61
2022/10/31 01:57:20;;;;;;;;;;;;;;;15.52;98.63;101261.41;7388686;19;19918;-65
2022/10/31 01:59:49;;;;;;;;;;;;;;;15.51;98.65;101252.63;7389719;19;19925;-62
2022/10/31 02:02:17;;;;;;;;;;;;;;;15.52;98.89;101258.78;7391873;19;20376;-62
2022/10/31 02:04:44;;;;;;;;;;;;;;;15.50;99.10;101261.56;7389613;19;20550;-61
2022/10/31 02:07:14;;;;;;;;;;;;;;;15.50;99.14;101264.19;7394100;19;19922;-60
2022/10/31 02:09:43;;;;;;;;;;;;;;;15.51;99.22;101254.41;7392363;19;20399;-61
2022/10/31 02:12:10;;;;;;;;;;;;;;;15.49;99.07;101251.94;7390471;19;20315;-61
2022/10/31 02:14:37;;;;;;;;;;;;;;;15.49;99.21;101243.97;7385253;19;20283;-60
2022/10/31 02:17:04;;;;;;;;;;;;;;;15.55;99.74;101250.44;7390099;19;19958;-61
2022/10/31 02:19:33;;;;;;;;;;;;;;;15.57;99.97;101243.16;7393903;19;20268;-61
2022/10/31 02:22:05;;;;;;;;;;;;;;;15.58;99.78;101250.94;7393066;19;20528;-61
2022/10/31 02:24:35;;;;;;;;;;;;;;;15.59;99.61;101249.94;7388438;19;19921;-61
2022/10/31 02:27:05;;;;;;;;;;;;;;;15.59;99.44;101246.47;7391012;19;19929;-61
2022/10/31 02:29:32;;;;;;;;;;;;;;;15.59;99.35;101244.66;7392004;19;20536;-61
2022/10/31 02:32:08;;;;;;;;;;;;;;;15.57;99.22;101245.81;7393845;19;19922;-61
2022/10/31 02:34:38;;;;;;;;;;;;;;;15.58;99.51;101242.16;7392552;19;19922;-61
2022/10/31 02:37:08;;;;;;;;;;;;;;;15.60;99.63;101248.09;7393588;19;20296;-60
2022/10/31 02:39:35;;;;;;;;;;;;;;;15.60;99.42;101246.28;7391817;19;19915;-61
2022/10/31 02:42:07;;;;;;;;;;;;;;;15.59;99.43;101247.31;7390073;19;19929;-61
2022/10/31 02:44:36;;;;;;;;;;;;;;;15.60;99.43;101240.97;7387961;19;19918;-61
2022/10/31 02:47:06;;;;;;;;;;;;;;;15.58;99.12;101244.81;7391867;19;20017;-61
2022/10/31 02:49:38;;;;;;;;;;;;;;;15.56;98.95;101237.03;7390924;19;20478;-60
2022/10/31 02:52:08;;;;;;;;;;;;;;;15.57;99.27;101230.72;7390386;19;20116;-60
2022/10/31 02:54:35;;;;;;;;;;;;;;;15.55;99.05;101235.38;7390248;19;20406;-60
2022/10/31 02:57:05;;;;;;;;;;;;;;;15.55;99.12;101229.22;7390422;19;19946;-61
2022/10/31 02:59:33;;;;;;;;;;;;;;;15.53;99.15;101221.47;7389364;19;19982;-60
2022/10/31 03:02:00;;;;;;;;;;;;;;;15.55;99.54;101222.09;7389698;19;19926;-61
2022/10/31 03:04:31;;;;;;;;;;;;;;;15.57;99.48;101221.94;7384469;19;20021;-61
2022/10/31 03:07:01;;;;;;;;;;;;;;;15.55;99.34;101222.09;7390255;19;19923;-61
2022/10/31 03:09:31;;;;;;;;;;;;;;;15.54;99.15;101222.28;7387649;19;20066;-61
2022/10/31 03:12:01;;;;;;;;;;;;;;;15.53;99.17;101225.94;7388625;19;19915;-61
2022/10/31 03:14:36;;;;;;;;;;;;;;;15.50;99.39;101221.78;7390725;19;19923;-60
2022/10/31 03:17:05;;;;;;;;;;;;;;;15.50;99.37;101226.25;7390046;19;19915;-60
2022/10/31 03:19:37;;;;;;;;;;;;;;;15.50;99.59;101224.41;7389210;19;19918;-61
2022/10/31 03:22:10;;;;;;;;;;;;;;;15.51;99.76;101218.16;7392135;19;19926;-61
2022/10/31 03:24:38;;;;;;;;;;;;;;;15.49;99.71;101220.09;7386067;19;19953;-61
2022/10/31 03:27:07;;;;;;;;;;;;;;;15.50;99.84;101218.28;7388225;19;19933;-61
2022/10/31 03:29:35;;;;;;;;;;;;;;;15.49;99.68;101216.66;7387937;19;19918;-60
2022/10/31 03:32:05;;;;;;;;;;;;;;;15.49;99.80;101217.47;7388707;19;20040;-61
2022/10/31 03:34:33;;;;;;;;;;;;;;;15.49;99.71;101208.69;7388920;19;19923;-62
2022/10/31 03:37:01;;;;;;;;;;;;;;;15.49;99.56;101206.84;7386729;19;19919;-60
2022/10/31 03:39:29;;;;;;;;;;;;;;;15.50;99.55;101211.16;7389998;19;19930;-60
2022/10/31 03:42:00;;;;;;;;;;;;;;;15.49;99.66;101217.47;7386611;19;19915;-62
2022/10/31 03:44:27;;;;;;;;;;;;;;;15.49;99.54;101214.81;7387738;19;19922;-61
2022/10/31 03:46:55;;;;;;;;;;;;;;;15.46;99.42;101215.16;7389166;19;20264;-61
2022/10/31 03:49:22;;;;;;;;;;;;;;;15.45;99.64;101212.69;7390463;19;20297;-62
2022/10/31 03:51:49;;;;;;;;;;;;;;;15.43;99.64;101212.88;7387662;19;19918;-62
2022/10/31 03:54:19;;;;;;;;;;;;;;;15.44;99.74;101216.34;7387558;19;19926;-62
2022/10/31 03:56:50;;;;;;;;;;;;;;;15.42;99.77;101216.53;7386930;19;19942;-62
2022/10/31 03:59:20;;;;;;;;;;;;;;;15.43;99.81;101212.03;7388347;19;19922;-61
2022/10/31 04:01:50;;;;;;;;;;;;;;;15.40;99.85;101214.03;7385340;19;20329;-61
2022/10/31 04:04:19;;;;;;;;;;;;;;;15.42;100.00;101216.53;7387012;19;20368;-61
2022/10/31 04:06:47;;;;;;;;;;;;;;;15.41;99.86;101209.56;7387236;19;19926;-61
2022/10/31 04:09:15;;;;;;;;;;;;;;;15.40;99.79;101222.00;7387651;19;19927;-60
2022/10/31 04:11:45;;;;;;;;;;;;;;;15.40;99.87;101218.50;7385933;19;19922;-61
2022/10/31 04:14:12;;;;;;;;;;;;;;;15.39;99.83;101222.16;7384951;19;19915;-61
2022/10/31 04:16:42;;;;;;;;;;;;;;;15.37;99.39;101224.19;7387721;19;19919;-60
2022/10/31 04:19:11;;;;;;;;;;;;;;;15.36;99.56;101214.56;7388321;19;19914;-62
2022/10/31 04:21:37;;;;;;;;;;;;;;;15.34;99.89;101214.72;7387729;19;20548;-61
2022/10/31 04:24:05;;;;;;;;;;;;;;;15.34;99.88;101206.78;7386257;19;19927;-61
2022/10/31 04:26:32;;;;;;;;;;;;;;;15.29;99.77;101208.28;7387952;19;19922;-60
2022/10/31 04:28:59;;;;;;;;;;;;;;;15.28;99.90;101209.31;7385540;19;20328;-61
2022/10/31 04:31:25;;;;;;;;;;;;;;;15.28;100.00;101207.50;7389713;19;19943;-62
2022/10/31 04:33:52;;;;;;;;;;;;;;;15.27;100.00;101208.50;7387500;19;19927;-62
2022/10/31 04:36:19;;;;;;;;;;;;;;;15.27;100.00;101202.34;7389569;19;19925;-62
2022/10/31 04:38:46;;;;;;;;;;;;;;;15.25;100.00;101194.56;7386703;19;19915;-62
2022/10/31 04:41:14;;;;;;;;;;;;;;;15.27;100.00;101202.34;7387858;19;19923;-60
2022/10/31 04:43:41;;;;;;;;;;;;;;;15.27;100.00;101189.09;7385732;19;19954;-61
2022/10/31 04:46:08;;;;;;;;;;;;;;;15.27;100.00;101194.41;7389599;19;19919;-61
2022/10/31 04:48:34;;;;;;;;;;;;;;;15.27;100.00;101192.56;7386737;19;20517;-61
2022/10/31 04:51:01;;;;;;;;;;;;;;;15.27;100.00;101181.97;7389328;19;19914;-61
2022/10/31 04:53:28;;;;;;;;;;;;;;;15.26;100.00;101176.84;7387647;19;20297;-61
2022/10/31 04:55:57;;;;;;;;;;;;;;;15.25;100.00;101181.31;7387467;19;19926;-61
2022/10/31 04:58:24;;;;;;;;;;;;;;;15.24;100.00;101186.78;7383285;19;19922;-61
2022/10/31 05:00:52;;;;;;;;;;;;;;;15.24;100.00;101178.81;7387445;19;19942;-60
2022/10/31 05:03:19;;;;;;;;;;;;;;;15.22;100.00;101171.06;7385832;19;19947;-62
2022/10/31 05:05:46;;;;;;;;;;;;;;;15.20;100.00;101175.69;7385373;19;20406;-61
2022/10/31 05:08:13;;;;;;;;;;;;;;;15.21;100.00;101180.00;7387392;19;19917;-61
2022/10/31 05:10:40;;;;;;;;;;;;;;;15.23;100.00;101179.84;7388211;19;20275;-60
2022/10/31 05:13:07;;;;;;;;;;;;;;;15.23;100.00;101180.69;7381400;19;19922;-61
2022/10/31 05:15:34;;;;;;;;;;;;;;;15.25;100.00;101183.13;7387440;19;19930;-62
2022/10/31 05:18:01;;;;;;;;;;;;;;;15.24;100.00;101181.47;7387485;19;20414;-61
2022/10/31 05:20:30;;;;;;;;;;;;;;;15.24;100.00;101176.16;7387063;19;20327;-60
2022/10/31 05:22:57;;;;;;;;;;;;;;;15.24;100.00;101173.53;7387500;19;20267;-62
2022/10/31 05:25:26;;;;;;;;;;;;;;;15.26;100.00;101179.47;7383323;19;19925;-61
2022/10/31 05:27:53;;;;;;;;;;;;;;;15.25;100.00;101176.00;7383759;19;20307;-61
2022/10/31 05:30:22;;;;;;;;;;;;;;;15.25;100.00;101170.69;7383844;19;19923;-62
2022/10/31 05:32:49;;;;;;;;;;;;;;;15.26;100.00;101163.59;7384524;19;20595;-61
2022/10/31 05:35:18;;;;;;;;;;;;;;;15.25;100.00;101154.78;7385569;19;20304;-61
2022/10/31 05:37:45;;;;;;;;;;;;;;;15.24;100.00;101149.66;7386916;19;19929;-60
2022/10/31 05:40:13;;;;;;;;;;;;;;;15.25;100.00;101153.97;7386035;19;20624;-61
2022/10/31 05:42:40;;;;;;;;;;;;;;;15.24;100.00;101152.31;7384107;19;20228;-61
2022/10/31 05:45:09;;;;;;;;;;;;;;;15.23;100.00;101142.72;7383416;19;19926;-61
2022/10/31 05:47:35;;;;;;;;;;;;;;;15.22;100.00;101160.47;7385075;19;19929;-62
2022/10/31 05:50:03;;;;;;;;;;;;;;;15.21;100.00;101157.97;7383518;19;20272;-60
2022/10/31 05:52:30;;;;;;;;;;;;;;;15.18;100.00;101159.16;7383468;19;19930;-61
2022/10/31 05:54:57;;;;;;;;;;;;;;;15.18;100.00;101158.34;7385452;19;20336;-59
2022/10/31 05:57:24;;;;;;;;;;;;;;;15.18;100.00;101147.72;7383577;19;20244;-60
2022/10/31 05:59:52;;;;;;;;;;;;;;;15.17;100.00;101156.69;7384409;19;20331;-61
2022/10/31 06:02:20;;;;;;;;;;;;;;;15.17;100.00;101154.84;7386337;19;19923;-63
2022/10/31 06:04:47;;;;;;;;;;;;;;;15.16;100.00;101150.56;7381689;19;19925;-61
2022/10/31 06:07:15;;;;;;;;;;;;;;;15.15;100.00;101148.06;7385331;19;20274;-61
2022/10/31 06:09:42;;;;;;;;;;;;;;;15.13;100.00;101147.44;7385142;19;19929;-61
2022/10/31 06:12:09;;;;;;;;;;;;;;;15.14;100.00;101146.41;7385183;19;20304;-61
2022/10/31 06:14:36;;;;;;;;;;;;;;;15.13;100.00;101145.59;7384836;19;19922;-61
2022/10/31 06:17:03;;;;;;;;;;;;;;;15.13;100.00;101147.44;7384327;19;19955;-61
2022/10/31 06:19:30;;;;;;;;;;;;;;;15.13;100.00;101139.47;7385369;19;20352;-61
2022/10/31 06:21:56;;;;;;;;;;;;;;;15.13;100.00;101135.00;7386576;19;19925;-60
2022/10/31 06:24:23;;;;;;;;;;;;;;;15.13;100.00;101132.34;7388732;19;19918;-60
2022/10/31 06:26:50;;;;;;;;;;;;;;;15.13;100.00;101140.31;7390973;19;19926;-60
2022/10/31 06:29:17;;;;;;;;;;;;;;;15.15;100.00;101135.63;7391103;19;19932;-61
2022/10/31 06:31:44;;;;;;;;;;;;;;;15.13;100.00;101147.44;7392938;19;19918;-62
2022/10/31 06:34:11;;;;;;;;;;;;;;;15.12;100.00;101146.59;7392347;19;19954;-61
2022/10/31 06:36:38;;;;;;;;;;;;;;;15.13;100.00;101147.44;7393931;19;20370;-61
2022/10/31 06:39:05;;;;;;;;;;;;;;;15.12;100.00;101132.53;7391241;19;20249;-61
2022/10/31 06:41:31;;;;;;;;;;;;;;;15.13;100.00;101142.97;7390023;19;19918;-61
2022/10/31 06:43:58;;;;;;;;;;;;;;;15.13;100.00;101129.69;7387721;19;19915;-62
2022/10/31 06:46:31;;;;;;;;;;;;;;;15.13;100.00;101134.19;7390960;19;19929;-62
2022/10/31 06:48:59;;;;;;;;;;;;;;;15.14;100.00;101125.19;7392340;19;20387;-61
2022/10/31 06:51:25;;;;;;;;;;;;;;;15.15;100.00;101126.84;7393084;19;19918;-60
2022/10/31 06:53:52;;;;;;;;;;;;;;;15.16;100.00;101136.47;7390198;19;19926;-61
2022/10/31 06:56:19;;;;;;;;;;;;;;;15.19;100.00;101128.16;7390929;19;20355;-61
2022/10/31 06:58:46;;;;;;;;;;;;;;;15.23;100.00;101126.81;7391261;19;20217;-62
2022/10/31 07:01:13;;;;;;;;;;;;;;;15.22;100.00;101118.03;7390665;19;19923;-61
2022/10/31 07:03:40;;;;;;;;;;;;;;;15.21;100.00;101121.69;7390543;19;19941;-62
2022/10/31 07:06:07;;;;;;;;;;;;;;;15.19;100.00;101117.53;7389316;19;20240;-61
2022/10/31 07:08:34;;;;;;;;;;;;;;;15.18;100.00;101111.44;7391891;19;20019;-62
2022/10/31 07:11:01;;;;;;;;;;;;;;;15.20;100.00;101112.06;7392273;19;19947;-62
2022/10/31 07:13:28;;;;;;;;;;;;;;;15.23;100.00;101117.06;7385497;19;19933;-61
2022/10/31 07:15:55;;;;;;;;;;;;;;;15.25;100.00;101111.56;7391308;19;19918;-60
2022/10/31 07:18:22;;;;;;;;;;;;;;;15.26;100.00;101113.19;7387819;19;20023;-62
2022/10/31 07:20:49;;;;;;;;;;;;;;;15.25;99.91;101114.19;7390690;19;19917;-61
2022/10/31 07:23:16;;;;;;;;;;;;;;;15.23;99.50;101124.16;7391248;19;20463;-61
2022/10/31 07:25:43;;;;;;;;;;;;;;;15.24;99.48;101115.19;7389108;19;19946;-61
2022/10/31 07:28:10;;;;;;;;;;;;;;;15.24;99.55;101113.38;7387262;19;19927;-60
2022/10/31 07:30:37;;;;;;;;;;;;;;;15.25;99.60;101107.06;7388829;19;19911;-62
2022/10/31 07:33:05;;;;;;;;;;;;;;;15.27;99.46;101106.91;7388798;19;19918;-62
2022/10/31 07:35:32;;;;;;;;;;;;;;;15.27;99.51;101105.09;7388235;19;19926;-62
2022/10/31 07:38:06;;;;;;;;;;;;;;;15.30;99.57;101111.84;7386693;19;19934;-62
2022/10/31 07:40:33;;;;;;;;;;;;;;;15.31;99.41;101109.03;7387940;19;19923;-61
2022/10/31 07:43:00;;;;;;;;;;;;;;;15.33;99.37;101111.50;7386563;19;20314;-61
2022/10/31 07:45:27;;;;;;;;;;;;;;;15.33;99.10;101109.69;7388348;19;19911;-62
2022/10/31 07:47:54;;;;;;;;;;;;;;;15.35;99.10;101109.50;7388336;19;20383;-61
2022/10/31 07:50:23;;;;;;;;;;;;;;;15.36;99.33;101108.50;7387634;19;19918;-59
2022/10/31 07:52:53;;;;;;;;;;;;;;;15.39;99.08;101102.81;7386507;19;19998;-61
2022/10/31 07:55:20;;;;;;;;;;;;;;;15.40;99.07;101109.78;7390156;19;19937;-62
2022/10/31 07:57:55;;;;;;;;;;;;;;;15.42;99.01;101099.84;7386466;19;20329;-61
2022/10/31 08:00:21;;;;;;;;;;;;;;;15.45;98.95;101106.59;7388458;19;19922;-59
2022/10/31 08:02:56;;;;;;;;;;;;;;;15.47;98.99;101115.22;7388151;19;20284;-61
2022/10/31 08:05:23;;;;;;;;;;;;;;;15.48;98.92;101106.25;7384753;19;19926;-60
2022/10/31 08:07:50;;;;;;;;;;;;;;;15.49;98.86;101098.09;7389262;19;19929;-61
2022/10/31 08:10:17;;;;;;;;;;;;;;;15.53;99.21;101109.22;7389524;19;19925;-59
2022/10/31 08:12:44;;;;;;;;;;;;;;;15.57;98.96;101115.81;7387484;19;19928;-62
2022/10/31 08:15:11;;;;;;;;;;;;;;;15.65;99.16;101115.75;7387444;19;20386;-60
2022/10/31 08:17:39;;;;;;;;;;;;;;;15.71;98.59;101109.72;7388593;19;20494;-61
2022/10/31 08:20:06;;;;;;;;;;;;;;;15.74;98.29;101112.03;7387055;19;19934;-61
2022/10/31 08:22:33;;;;;;;;;;;;;;;15.75;98.15;101103.88;7389145;19;19925;-60
2022/10/31 08:25:03;;;;;;;;;;;;;;;15.75;97.92;101106.53;7387248;19;19919;-61
2022/10/31 08:27:30;;;;;;;;;;;;;;;15.78;98.09;101102.72;7386627;19;20315;-62
2022/10/31 08:29:58;;;;;;;;;;;;;;;15.78;97.85;101094.75;7385994;19;19932;-62
2022/10/31 08:32:25;;;;;;;;;;;;;;;15.80;97.78;101090.06;7387539;19;19935;-61
2022/10/31 08:34:52;;;;;;;;;;;;;;;15.81;97.58;101100.53;7388553;19;19929;-61
2022/10/31 08:37:19;;;;;;;;;;;;;;;15.84;97.59;101102.00;7388605;19;19918;-60
2022/10/31 08:39:47;;;;;;;;;;;;;;;15.86;97.71;101104.44;7387947;19;19998;-60
2022/10/31 08:42:14;;;;;;;;;;;;;;;15.85;97.61;101098.31;7381595;19;20256;-61
2022/10/31 08:44:41;;;;;;;;;;;;;;;15.86;97.59;101086.72;7385699;19;20336;-61
2022/10/31 08:47:08;;;;;;;;;;;;;;;15.89;97.95;101085.53;7384194;19;19952;-61
2022/10/31 08:49:35;;;;;;;;;;;;;;;15.91;98.06;101081.69;7386661;19;19923;-61
2022/10/31 08:52:02;;;;;;;;;;;;;;;15.94;97.97;101081.34;7384862;19;19937;-61
2022/10/31 08:54:29;;;;;;;;;;;;;;;15.98;97.45;101079.13;7387559;19;19932;-61
2022/10/31 08:56:56;;;;;;;;;;;;;;;16.01;96.73;101073.44;7385312;19;20608;-62
2022/10/31 08:59:23;;;;;;;;;;;;;;;16.04;96.49;101075.75;7386089;19;20359;-62
2022/10/31 09:01:50;;;;;;;;;;;;;;;16.07;96.18;101075.38;7383179;19;19926;-60
2022/10/31 09:04:17;;;;;;;;;;;;;;;16.12;96.63;101079.13;7387195;19;19918;-62
2022/10/31 09:06:44;;;;;;;;;;;;;;;16.17;96.34;101078.59;7386839;19;20475;-60
2022/10/31 09:09:31;;;;;;;;;;;;;;;16.21;95.83;101074.56;7386798;19;20106;-61
2022/10/31 09:11:58;;;;;;;;;;;;;;;16.25;96.04;101071.34;7385571;19;19918;-61
2022/10/31 09:14:26;;;;;;;;;;;;;;;16.29;95.75;101069.16;7386952;19;19923;-61
2022/10/31 09:16:53;;;;;;;;;;;;;;;16.32;94.80;101062.66;7386776;19;19925;-61
2022/10/31 09:19:20;;;;;;;;;;;;;;;16.41;95.58;101058.88;7385305;19;20048;-62
2022/10/31 09:21:47;;;;;;;;;;;;;;;16.50;95.86;101044.50;7387264;19;20249;-61
2022/10/31 09:24:14;;;;;;;;;;;;;;;16.58;96.31;101049.69;7387262;19;19933;-61
2022/10/31 09:26:41;;;;;;;;;;;;;;;16.60;95.47;101056.53;7382087;19;19994;-62
2022/10/31 09:29:09;;;;;;;;;;;;;;;16.66;94.51;101053.09;7386895;19;19919;-60
2022/10/31 09:31:36;;;;;;;;;;;;;;;16.70;93.56;101045.59;7388276;19;20313;-61
2022/10/31 09:34:10;;;;;;;;;;;;;;;16.74;93.67;101048.69;7386845;19;19928;-61
2022/10/31 09:36:37;;;;;;;;;;;;;;;16.80;93.72;101048.78;7387018;19;20268;-61
2022/10/31 09:39:05;;;;;;;;;;;;;;;16.81;92.89;101044.28;7386746;19;19982;-61
2022/10/31 09:41:35;;;;;;;;;;;;;;;16.79;92.41;101031.19;7385653;19;19921;-61
2022/10/31 09:44:05;;;;;;;;;;;;;;;16.84;92.45;101041.25;7384657;19;19948;-61
2022/10/31 09:46:35;;;;;;;;;;;;;;;16.84;91.52;101031.44;7384571;19;19944;-61
2022/10/31 09:49:04;;;;;;;;;;;;;;;16.86;91.13;101028.59;7384469;19;19917;-62
2022/10/31 09:51:37;;;;;;;;;;;;;;;16.87;91.00;101024.91;7385920;19;19919;-61
2022/10/31 09:54:07;;;;;;;;;;;;;;;16.89;91.08;101025.56;7386251;19;19918;-62
2022/10/31 09:56:35;;;;;;;;;;;;;;;16.90;90.35;101024.53;7384319;19;19926;-62
2022/10/31 09:59:04;;;;;;;;;;;;;;;16.91;89.95;101011.06;7385039;19;20006;-61
2022/10/31 10:01:33;;;;;;;;;;;;;;;16.93;89.39;101009.03;7392317;19;20316;-61
2022/10/31 10:04:07;;;;;;;;;;;;;;;16.99;89.86;101018.91;7392072;19;19935;-61
2022/10/31 10:06:36;;;;;;;;;;;;;;;17.05;89.77;101014.66;7390699;19;20029;-62
2022/10/31 10:09:03;;;;;;;;;;;;;;;17.05;89.22;101010.19;7393561;19;19998;-61
2022/10/31 10:11:30;;;;;;;;;;;;;;;17.03;88.40;101009.53;7393106;19;19923;-62
2022/10/31 10:14:00;;;;;;;;;;;;;;;17.03;88.56;101009.53;7391459;19;20295;-61
2022/10/31 10:16:33;;;;;;;;;;;;;;;17.07;88.71;100999.34;7392935;19;19946;-61
2022/10/31 10:19:01;;;;;;;;;;;;;;;17.10;88.10;100996.31;7392510;19;20090;-61
2022/10/31 10:21:28;;;;;;;;;;;;;;;17.12;87.94;100996.13;7391122;19;19931;-61
2022/10/31 10:23:58;;;;;;;;;;;;;;;17.09;87.52;100984.84;7391332;19;19926;-61
2022/10/31 10:26:30;;;;;;;;;;;;;;;17.12;87.93;100982.84;7388590;19;19927;-61
2022/10/31 10:29:02;;;;;;;;;;;;;;;17.12;87.36;100986.28;7388824;19;19950;-61
2022/10/31 10:31:33;;;;;;;;;;;;;;;17.14;87.25;100986.94;7389597;19;19931;-60
2022/10/31 10:34:03;;;;;;;;;;;;;;;17.14;86.93;100986.94;7390299;19;20367;-61
2022/10/31 10:36:34;;;;;;;;;;;;;;;17.18;87.11;100988.19;7391641;19;19926;-60
2022/10/31 10:39:04;;;;;;;;;;;;;;;17.19;87.75;100989.84;7390992;19;20002;-61
2022/10/31 10:41:32;;;;;;;;;;;;;;;17.25;87.45;100988.25;7388973;19;19951;-61
2022/10/31 10:44:00;;;;;;;;;;;;;;;17.26;86.98;100990.72;7388794;19;19966;-62
2022/10/31 10:49:03;;;;;;;;;;;;;;;17.29;86.04;100995.66;7392274;19;19929;-61
2022/10/31 10:51:33;;;;;;;;;;;;;;;17.35;86.54;100989.56;7388966;19;19917;-60
2022/10/31 10:54:24;;;;;;;;;;;;;;;17.42;86.34;100978.97;7390942;19;19915;-60
2022/10/31 10:56:54;;;;;;;;;;;;;;;17.42;85.46;100961.16;7389520;19;19942;-61
2022/10/31 10:59:22;;;;;;;;;;;;;;;17.44;84.67;100961.78;7390592;19;20458;-62
2022/10/31 11:01:51;;;;;;;;;;;;;;;17.46;84.26;100958.94;7389205;19;19939;-61
2022/10/31 11:04:21;;;;;;;;;;;;;;;17.47;84.58;100952.63;7387402;19;19991;-61
2022/10/31 11:06:55;;;;;;;;;;;;;;;17.48;84.25;100948.91;7388315;19;20238;-61
2022/10/31 11:09:22;;;;;;;;;;;;;;;17.49;83.60;100943.41;7387907;19;19927;-61
2022/10/31 11:11:49;;;;;;;;;;;;;;;17.49;83.65;100947.91;7384517;19;19924;-61
2022/10/31 11:14:17;;;;;;;;;;;;;;;17.49;83.38;100946.06;7391624;19;19923;-61
2022/10/31 11:16:47;;;;;;;;;;;;;;;17.56;84.76;100930.16;7388239;19;19925;-59
2022/10/31 11:19:18;;;;;;;;;;;;;;;17.63;85.69;100922.22;7388277;19;19921;-62
2022/10/31 11:21:46;;;;;;;;;;;;;;;17.67;86.28;100920.84;7389218;19;19932;-62
2022/10/31 11:24:21;;;;;;;;;;;;;;;17.69;86.31;100924.91;7389583;19;19939;-61
2022/10/31 11:26:49;;;;;;;;;;;;;;;17.69;86.05;100916.94;7384545;19;19928;-61
2022/10/31 11:29:20;;;;;;;;;;;;;;;17.70;86.34;100913.25;7388444;19;19939;-62
2022/10/31 11:31:48;;;;;;;;;;;;;;;17.72;86.05;100921.06;7389887;19;19919;-61
2022/10/31 11:34:19;;;;;;;;;;;;;;;17.73;85.86;100910.19;7388623;19;19940;-60
2022/10/31 11:36:46;;;;;;;;;;;;;;;17.72;83.97;100905.09;7390892;19;19918;-60
2022/10/31 11:39:16;;;;;;;;;;;;;;;17.73;82.98;100906.72;7388925;19;19919;-61
2022/10/31 11:41:44;;;;;;;;;;;;;;;17.77;83.00;100906.16;7386867;19;19925;-61
2022/10/31 11:44:14;;;;;;;;;;;;;;;17.81;82.68;100901.22;7387712;19;19982;-62
2022/10/31 11:46:44;;;;;;;;;;;;;;;17.84;81.68;100892.84;7386781;19;19919;-60
2022/10/31 11:49:15;;;;;;;;;;;;;;;17.85;81.48;100882.00;7390997;19;19914;-61
2022/10/31 11:51:42;;;;;;;;;;;;;;;17.84;80.54;100877.69;7385345;19;19970;-61
2022/10/31 11:54:12;;;;;;;;;;;;;;;17.86;80.47;100869.50;7390407;19;19936;-61
2022/10/31 11:56:40;;;;;;;;;;;;;;;17.88;81.20;100864.78;7385970;19;20014;-61
2022/10/31 11:59:20;;;;;;;;;;;;;;;17.88;80.41;100865.63;7388689;19;19936;-62
2022/10/31 12:01:48;;;;;;;;;;;;;;;17.88;80.60;100846.16;7386714;19;19923;-61
2022/10/31 12:04:16;;;;;;;;;;;;;;;17.88;80.35;100840.81;7383860;19;19950;-62
2022/10/31 12:06:46;;;;;;;;;;;;;;;17.89;80.19;100840.63;7386031;19;19990;-60
2022/10/31 12:09:29;;;;;;;;;;;;;;;17.92;80.10;100834.09;7390563;19;20532;-60
2022/10/31 12:12:05;;;;;;;;;;;;;;;17.93;78.96;100841.06;7386018;19;19987;-60
2022/10/31 12:14:33;;;;;;;;;;;;;;;17.92;79.50;100828.78;7385822;19;19969;-60
2022/10/31 12:17:01;;;;;;;;;;;;;;;17.93;79.08;100830.41;7387069;19;19951;-61
2022/10/31 12:19:40;;;;;;;;;;;;;;;17.92;78.38;100826.94;7387590;19;20526;-60
2022/10/31 12:22:16;;;;;;;;;;;;;;;17.91;77.60;100822.63;7387157;19;20533;-61
2022/10/31 12:24:44;;;;;;;;;;;;;;;17.86;76.87;100814.44;7387793;19;20003;-61
2022/10/31 12:27:22;;;;;;;;;;;;;;;17.86;76.95;100808.28;7383469;19;20336;-61
2022/10/31 12:30:02;;;;;;;;;;;;;;;17.84;76.55;100797.00;7385747;19;19922;-61
2022/10/31 12:32:30;;;;;;;;;;;;;;;17.84;76.78;100791.69;7387398;19;19950;-62
2022/10/31 12:35:05;;;;;;;;;;;;;;;17.82;77.49;100781.25;7385793;19;20348;-63
2022/10/31 12:37:42;;;;;;;;;;;;;;;17.84;77.90;100778.38;7389076;19;19915;-61
2022/10/31 12:40:19;;;;;;;;;;;;;;;17.85;78.41;100769.38;7385759;19;20371;-60
2022/10/31 12:42:59;;;;;;;;;;;;;;;17.82;78.32;100765.28;7385203;19;19964;-62
2022/10/31 12:45:26;;;;;;;;;;;;;;;17.83;78.68;100766.06;7387635;19;19936;-62